createdAt,value
2023-01-05T00:01:18.332Z,10.425
2023-01-05T00:04:17.735Z,9.2625
2023-01-05T00:07:17.243Z,8.3
2023-01-05T00:31:16.589Z,12.2125
2023-01-05T00:34:16.811Z,9.9125
2023-01-05T00:37:16.771Z,11.2125
2023-01-05T00:41:16.705Z,9.6125
2023-01-05T00:44:17.006Z,9.7
2023-01-05T00:47:17.460Z,9.9125
2023-01-05T00:51:16.381Z,8.899999999999999
2023-01-05T00:54:16.762Z,8.575000000000001
2023-01-05T00:57:17.135Z,8.4875
2023-01-05T01:01:16.853Z,9.6875
2023-01-05T01:04:18.220Z,10.9125
2023-01-05T01:07:17.125Z,9.225
2023-01-05T01:11:17.343Z,9.837499999999999
2023-01-05T01:14:17.663Z,8.325
2023-01-05T01:17:17.237Z,10.3125
2023-01-05T01:21:16.408Z,10.5875
2023-01-05T01:24:18.542Z,9.7125
2023-01-05T01:27:16.785Z,8.787500000000001
2023-01-05T01:31:16.608Z,11.0125
2023-01-05T01:34:17.187Z,9.962499999999999
2023-01-05T01:37:16.878Z,8.2625
2023-01-05T01:41:16.877Z,9.625
2023-01-05T01:44:52.905Z,8.3125
2023-01-05T01:47:23.735Z,7.737500000000001
2023-01-05T01:51:20.520Z,10.0125
2023-01-05T01:54:18.264Z,8.425
2023-01-05T01:57:17.179Z,9.625
2023-01-05T02:01:17.005Z,9.8625
2023-01-05T02:04:17.549Z,7.75
2023-01-05T02:07:16.974Z,8.450000000000001
2023-01-05T02:11:29.376Z,10.1875
2023-01-05T02:14:26.270Z,8.925
2023-01-05T02:17:27.928Z,9.2
2023-01-05T02:21:26.728Z,10.2
2023-01-05T02:24:39.678Z,9.7
2023-01-05T02:27:44.969Z,9.325
2023-01-05T02:31:21.092Z,11.4625
2023-01-05T02:34:24.624Z,9.962499999999999
2023-01-05T02:37:25.456Z,8.85
2023-01-05T02:41:22.387Z,10.2375
2023-01-05T02:44:17.340Z,11.600000000000001
2023-01-05T02:47:37.643Z,9.299999999999999
2023-01-05T02:51:22.730Z,11.774999999999999
2023-01-05T02:54:23.522Z,8.799999999999999
2023-01-05T02:57:21.717Z,8.1125
2023-01-05T03:01:24.018Z,10.675
2023-01-05T03:04:23.204Z,9.825
2023-01-05T03:21:16.318Z,9.125
2023-01-05T03:41:19.641Z,9.850000000000001
2023-01-05T03:44:16.516Z,7.7
2023-01-05T03:47:16.636Z,9.1375
2023-01-05T03:51:16.962Z,9.475
2023-01-05T03:54:16.852Z,9.5875
2023-01-05T03:57:17.711Z,7.575000000000001
2023-01-05T04:01:16.666Z,7.387500000000001
2023-01-05T04:04:16.653Z,5.800000000000001
2023-01-05T04:07:16.788Z,5.975
2023-01-05T04:11:18.495Z,6.6375
2023-01-05T04:14:16.572Z,6.2749999999999995
2023-01-05T04:17:16.447Z,8.725
2023-01-05T04:21:16.495Z,7.3875
2023-01-05T04:24:16.774Z,5.637499999999999
2023-01-05T04:27:16.829Z,5.2875
2023-01-05T04:31:16.328Z,5.5
2023-01-05T04:34:16.759Z,5.8875
2023-01-05T04:37:16.585Z,5.125
2023-01-05T04:41:16.436Z,4.762499999999999
2023-01-05T04:44:16.846Z,5.2375
2023-01-05T04:47:16.794Z,5.425000000000001
2023-01-05T04:51:16.219Z,6.550000000000001
2023-01-05T04:54:17.777Z,4.65
2023-01-05T04:57:16.480Z,6.762499999999999
2023-01-05T05:01:17.030Z,7.387499999999999
2023-01-05T05:04:17.143Z,8.2625
2023-01-05T05:07:17.587Z,6.1625
2023-01-05T05:11:16.816Z,7.362500000000001
2023-01-05T05:14:17.238Z,6.9125000000000005
2023-01-05T05:17:17.115Z,6.2625
2023-01-05T05:21:16.161Z,8.4125
2023-01-05T05:24:16.364Z,7.9624999999999995
2023-01-05T05:27:16.501Z,9.5125
2023-01-05T05:31:16.666Z,7.4625
2023-01-05T05:34:16.998Z,7.3375
2023-01-05T05:37:16.884Z,7.625
2023-01-05T05:41:17.128Z,8.3875
2023-01-05T05:44:17.462Z,5.7375
2023-01-05T05:47:17.355Z,5.5625
2023-01-05T05:51:16.704Z,7.762499999999999
2023-01-05T05:54:17.270Z,5.5875
2023-01-05T05:57:17.895Z,6.9125
2023-01-05T06:01:16.630Z,5.25
2023-01-05T06:04:18.728Z,5.2875
2023-01-05T06:07:16.975Z,6.35
2023-01-05T06:11:16.799Z,9.7625
2023-01-05T06:14:17.419Z,7.725
2023-01-05T06:17:17.104Z,8.8875
2023-01-05T06:21:17.030Z,10.825
2023-01-05T06:24:17.354Z,7.825
2023-01-05T06:27:17.201Z,7.05
2023-01-05T06:31:16.618Z,8.5
2023-01-05T06:34:16.872Z,8.6125
2023-01-05T06:37:16.988Z,6.4125
2023-01-05T06:41:16.217Z,6.8625
2023-01-05T06:44:16.491Z,7.4875
2023-01-05T06:47:17.191Z,8.75
2023-01-05T06:51:16.790Z,8.15
2023-01-05T06:54:17.415Z,8.225000000000001
2023-01-05T06:57:17.403Z,7.0125
2023-01-05T07:01:16.937Z,10.8125
2023-01-05T07:04:17.432Z,12.35
2023-01-05T07:07:17.089Z,10.6375
2023-01-05T07:11:16.837Z,12.399999999999999
2023-01-05T07:14:17.799Z,9.462499999999999
2023-01-05T07:17:17.121Z,6.6875
2023-01-05T07:21:16.787Z,7.4375
2023-01-05T07:24:17.103Z,9.825
2023-01-05T07:27:16.963Z,10.6625
2023-01-05T07:31:16.286Z,8.975
2023-01-05T07:34:16.416Z,9.05
2023-01-05T07:37:16.345Z,10.25
2023-01-05T07:41:16.274Z,8.100000000000001
2023-01-05T07:44:16.647Z,10.0125
2023-01-05T07:47:16.611Z,9.6125
2023-01-05T07:51:16.124Z,8.7875
2023-01-05T07:54:16.300Z,6.8625
2023-01-05T07:57:16.353Z,8.0875
2023-01-05T08:01:16.427Z,10.024999999999999
2023-01-05T08:04:16.996Z,9.775
2023-01-05T08:07:16.440Z,9.875
2023-01-05T08:11:17.810Z,12.5
2023-01-05T08:14:17.106Z,14.125
2023-01-05T08:17:17.026Z,11.075
2023-01-05T08:21:16.447Z,15.175
2023-01-05T08:24:16.595Z,12.5125
2023-01-05T08:27:16.700Z,11.4875
2023-01-05T08:31:20.022Z,13.55
2023-01-05T08:34:17.415Z,8.725
2023-01-05T08:37:17.379Z,8.850000000000001
2023-01-05T08:41:18.397Z,9.1375
2023-01-05T08:44:16.982Z,8.6125
2023-01-05T08:47:18.411Z,10.225000000000001
2023-01-05T08:51:17.669Z,12.7
2023-01-05T08:54:17.314Z,11.025
2023-01-05T08:57:17.196Z,10.4875
2023-01-05T09:01:18.514Z,12.2
2023-01-05T09:04:16.862Z,14.2
2023-01-05T09:07:16.601Z,8.875
2023-01-05T09:11:19.180Z,10.35
2023-01-05T09:14:18.256Z,10.225
2023-01-05T09:17:17.041Z,10.2875
2023-01-05T09:21:17.159Z,9.875
2023-01-05T09:24:17.245Z,9.674999999999999
2023-01-05T09:27:16.817Z,8.0875
2023-01-05T09:31:18.356Z,7.874999999999999
2023-01-05T09:34:17.001Z,5.9750000000000005
2023-01-05T09:37:16.913Z,5.300000000000001
2023-01-05T09:41:21.927Z,7.4875
2023-01-05T09:44:27.601Z,5.7375
2023-01-05T09:47:26.518Z,5.875
2023-01-05T09:51:16.442Z,6.275
2023-01-05T09:54:18.956Z,6.824999999999999
2023-01-05T09:57:19.638Z,6.25
2023-01-05T10:01:18.415Z,8.325
2023-01-05T10:04:25.221Z,8.225
2023-01-05T10:07:23.695Z,7.362500000000001
2023-01-05T10:21:27.205Z,9.225000000000001
2023-01-05T10:24:27.024Z,8.925
2023-01-05T10:27:25.561Z,8.600000000000001
2023-01-05T10:31:22.954Z,7.7124999999999995
2023-01-05T10:34:22.571Z,9.725
2023-01-05T10:37:33.277Z,7.574999999999999
2023-01-05T10:41:26.393Z,8.9875
2023-01-05T10:44:39.464Z,7.137499999999999
2023-01-05T10:47:17.432Z,7.1000000000000005
2023-01-05T10:51:17.611Z,8.525
2023-01-05T10:54:25.903Z,8.0875
2023-01-05T10:57:49.442Z,6.637499999999999
2023-01-05T11:01:23.730Z,5.699999999999999
2023-01-05T11:04:34.881Z,5.1875
2023-01-05T11:07:17.339Z,4.725
2023-01-05T11:11:22.382Z,5.1000000000000005
2023-01-05T11:14:16.851Z,4.85
2023-01-05T11:17:21.037Z,5.0375
2023-01-05T11:21:18.320Z,4.925000000000001
2023-01-05T11:24:28.502Z,5.1625000000000005
2023-01-05T11:27:24.035Z,5.5375
2023-01-05T11:31:17.162Z,6.2125
2023-01-05T11:34:27.189Z,6.8125
2023-01-05T11:37:24.421Z,6.9
2023-01-05T11:41:20.664Z,8.1625
2023-01-05T11:44:21.872Z,8.024999999999999
2023-01-05T11:47:21.825Z,7.550000000000001
2023-01-05T11:51:33.144Z,9.075000000000001
2023-01-05T11:54:34.391Z,8.2375
2023-01-05T11:57:18.646Z,7.987499999999999
2023-01-05T12:01:41.870Z,9.7125
2023-01-05T12:04:54.276Z,9.162500000000001
2023-01-05T12:07:28.374Z,9.575
2023-01-05T12:11:19.213Z,12
2023-01-05T12:14:32.245Z,9.8
2023-01-05T12:17:24.863Z,10.7875
2023-01-05T12:21:22.843Z,8.1875
2023-01-05T12:24:36.135Z,8.85
2023-01-05T12:27:33.939Z,8.45
2023-01-05T12:34:00.495Z,7.812500000000001
2023-01-05T12:34:33.207Z,5.512499999999999
2023-01-05T12:37:31.143Z,4.975
2023-01-05T12:41:43.641Z,4.75
2023-01-05T12:44:38.044Z,6.3
2023-01-05T12:47:31.798Z,7.687499999999999
2023-01-05T12:51:22.243Z,8.775
2023-01-05T12:54:30.479Z,9.337499999999999
2023-01-05T12:57:25.550Z,10.0125
2023-01-05T13:01:22.818Z,10.4125
2023-01-05T13:04:37.846Z,10.2
2023-01-05T13:07:23.181Z,12.200000000000001
2023-01-05T13:11:23.683Z,12.212499999999999
2023-01-05T13:14:19.684Z,13.1
2023-01-05T13:17:24.868Z,14.1375
2023-01-05T13:21:18.238Z,13.95
2023-01-05T13:24:30.114Z,14.2625
2023-01-05T13:27:17.654Z,12.075
2023-01-05T13:32:35.152Z,13.55
2023-01-05T13:34:29.981Z,10.8875
2023-01-05T13:37:51.006Z,10.175
2023-01-05T13:41:29.951Z,11.424999999999999
2023-01-05T13:51:56.038Z,10.3
2023-01-05T17:51:16.290Z,14.95
2023-01-05T17:54:16.376Z,15.475
2023-01-05T17:57:16.187Z,14.762500000000001
2023-01-05T18:01:17.511Z,16
2023-01-05T18:04:17.107Z,18.025
2023-01-05T18:07:17.531Z,29.7875
2023-01-05T18:11:17.638Z,22.7625
2023-01-05T18:14:16.518Z,23.4625
2023-01-05T18:17:16.754Z,25.162499999999998
2023-01-05T18:21:16.435Z,21.2875
2023-01-05T18:24:16.851Z,17.3375
2023-01-05T18:27:17.048Z,17.25
2023-01-05T18:31:16.818Z,19.450000000000003
2023-01-05T18:34:17.449Z,17.875
2023-01-05T18:37:21.806Z,18.0375
2023-01-05T18:41:22.436Z,20.4625
2023-01-05T18:44:16.699Z,21.3125
2023-01-05T18:47:16.650Z,18.6625
2023-01-05T18:51:16.376Z,20.45
2023-01-05T18:54:16.714Z,18.549999999999997
2023-01-05T18:57:16.689Z,21.4875
2023-01-05T19:01:17.811Z,21.2125
2023-01-05T19:04:16.947Z,19.950000000000003
2023-01-05T19:07:16.550Z,20.725
2023-01-05T19:11:18.358Z,20.525
2023-01-05T19:14:16.643Z,18.012500000000003
2023-01-05T19:17:16.527Z,17.7125
2023-01-05T19:21:16.295Z,19.700000000000003
2023-01-05T19:24:19.040Z,21.55
2023-01-05T19:27:16.497Z,21.3875
2023-01-05T19:31:18.189Z,19.2125
2023-01-05T19:34:19.622Z,15.9
2023-01-05T19:37:17.275Z,17.225
2023-01-05T19:41:19.705Z,26.175
2023-01-05T19:44:18.910Z,20.224999999999998
2023-01-05T19:47:17.089Z,21.5
2023-01-05T19:51:18.215Z,20.3375
2023-01-05T19:54:16.886Z,17.6125
2023-01-05T19:57:16.402Z,16.8875
2023-01-05T20:01:16.038Z,14.225
2023-01-05T20:04:16.610Z,13.9875
2023-01-05T20:07:16.631Z,16.35
2023-01-05T20:11:16.099Z,13.0125
2023-01-05T20:14:18.539Z,13.524999999999999
2023-01-05T20:17:16.260Z,12.8125
2023-01-05T20:21:16.699Z,14.2
2023-01-05T20:24:20.145Z,12.024999999999999
2023-01-05T20:27:18.982Z,12.6625
2023-01-05T20:31:19.517Z,11.8375
2023-01-05T20:34:19.622Z,11.025
2023-01-05T20:37:17.197Z,11.3875
2023-01-05T20:41:18.768Z,9.774999999999999
2023-01-05T20:44:19.733Z,8.05
2023-01-05T20:47:17.172Z,10.1125
2023-01-05T20:51:17.855Z,11.425
2023-01-05T20:54:17.313Z,9
2023-01-05T20:57:17.168Z,8.4375
2023-01-05T21:01:17.384Z,11.375
2023-01-05T21:04:18.543Z,11.75
2023-01-05T21:07:17.465Z,11.212499999999999
2023-01-05T21:11:17.802Z,11.575
2023-01-05T21:14:16.690Z,12.8625
2023-01-05T21:17:16.879Z,10.875
2023-01-05T21:21:18.864Z,13
2023-01-05T21:24:16.912Z,11.3125
2023-01-05T21:27:16.543Z,8.8125
2023-01-05T21:31:19.159Z,10.087500000000002
2023-01-05T21:34:16.609Z,9.3375
2023-01-05T21:37:16.762Z,10.825
2023-01-05T21:41:16.500Z,12.6
2023-01-05T21:44:17.463Z,12.649999999999999
2023-01-05T21:47:16.875Z,13.5375
2023-01-05T22:01:17.005Z,11.5375
2023-01-05T22:04:17.199Z,9.1625
2023-01-05T22:07:16.960Z,7.9625
2023-01-05T22:11:16.694Z,8.725
2023-01-05T22:14:17.172Z,9.975
2023-01-05T22:17:16.989Z,9.5
2023-01-05T22:21:17.262Z,8.8125
2023-01-05T22:24:16.919Z,8.35
2023-01-05T22:27:16.919Z,9.662500000000001
2023-01-05T22:31:18.452Z,7.8125
2023-01-05T22:34:17.021Z,7.7875000000000005
2023-01-05T22:37:17.078Z,7.3125
2023-01-05T22:41:17.985Z,7.4875
2023-01-05T22:44:16.457Z,6.45
2023-01-05T22:47:16.183Z,7.1
2023-01-05T22:51:18.616Z,6.85
2023-01-05T22:54:17.351Z,6.7375
2023-01-05T22:57:17.086Z,7.1875
2023-01-05T23:01:21.564Z,7.7875
2023-01-05T23:04:17.073Z,7.9
2023-01-05T23:07:20.975Z,8.9375
2023-01-05T23:11:19.989Z,8.6
2023-01-05T23:14:18.665Z,8.2375
2023-01-05T23:17:17.044Z,7.862500000000001
2023-01-05T23:21:18.742Z,8.649999999999999
2023-01-05T23:24:16.708Z,7.1375
2023-01-05T23:27:16.884Z,7.4750000000000005
2023-01-05T23:31:16.869Z,8.2
2023-01-05T23:34:16.951Z,6.0625
2023-01-05T23:37:16.777Z,6.425
2023-01-05T23:41:17.408Z,6.875
2023-01-05T23:44:17.452Z,6.3125
2023-01-05T23:47:17.027Z,7.1000000000000005
2023-01-05T23:51:17.812Z,5.987500000000001
2023-01-05T23:54:16.895Z,5.4
2023-01-05T23:57:16.759Z,6.7625
